sensor_id;sensor_type;location;lat;lon;timestamp;pressure;altitude;pressure_sealevel;temperature;humidity
59419;BME280;45224;50.904;6.038;2022-10-17T00:00:35;99914.19;;;16.86;97.30
59419;BME280;45224;50.904;6.038;2022-10-17T00:02:06;99911.44;;;16.92;96.70
59419;BME280;45224;50.904;6.038;2022-10-17T00:03:37;99913.94;;;16.95;96.38
59419;BME280;45224;50.904;6.038;2022-10-17T00:05:08;99912.22;;;16.96;96.92
59419;BME280;45224;50.904;6.038;2022-10-17T00:06:38;99914.91;;;16.93;97.50
59419;BME280;45224;50.904;6.038;2022-10-17T00:08:10;99916.41;;;17.02;96.61
59419;BME280;45224;50.904;6.038;2022-10-17T00:09:42;99913.69;;;17.06;96.24
59419;BME280;45224;50.904;6.038;2022-10-17T00:11:16;99919.69;;;17.10;96.69
59419;BME280;45224;50.904;6.038;2022-10-17T00:12:47;99924.13;;;17.08;96.71
59419;BME280;45224;50.904;6.038;2022-10-17T00:14:17;99926.34;;;17.23;95.23
59419;BME280;45224;50.904;6.038;2022-10-17T00:15:47;99923.63;;;17.28;94.35
59419;BME280;45224;50.904;6.038;2022-10-17T00:17:18;99905.53;;;17.20;95.71
59419;BME280;45224;50.904;6.038;2022-10-17T00:18:48;99918.44;;;17.26;95.39
59419;BME280;45224;50.904;6.038;2022-10-17T00:20:19;99918.44;;;17.26;94.77
59419;BME280;45224;50.904;6.038;2022-10-17T00:21:49;99915.72;;;17.29;95.95
59419;BME280;45224;50.904;6.038;2022-10-17T00:23:20;99916.56;;;17.31;95.54
59419;BME280;45224;50.904;6.038;2022-10-17T00:24:50;99913.22;;;17.26;95.25
59419;BME280;45224;50.904;6.038;2022-10-17T00:26:21;99916.56;;;17.31;94.95
59419;BME280;45224;50.904;6.038;2022-10-17T00:27:52;99916.19;;;17.45;94.44
59419;BME280;45224;50.904;6.038;2022-10-17T00:29:22;99912.00;;;17.40;94.81
59419;BME280;45224;50.904;6.038;2022-10-17T00:31:00;99922.44;;;17.40;94.40
59419;BME280;45224;50.904;6.038;2022-10-17T00:32:31;99921.94;;;17.58;92.92
59419;BME280;45224;50.904;6.038;2022-10-17T00:34:02;99915.03;;;17.57;92.74
59419;BME280;45224;50.904;6.038;2022-10-17T00:35:32;99915.03;;;17.57;92.88
59419;BME280;45224;50.904;6.038;2022-10-17T00:37:02;99913.41;;;17.51;93.52
59419;BME280;45224;50.904;6.038;2022-10-17T00:38:34;99916.72;;;17.58;92.61
59419;BME280;45224;50.904;6.038;2022-10-17T00:40:05;99915.09;;;17.54;93.18
59419;BME280;45224;50.904;6.038;2022-10-17T00:41:36;99915.19;;;17.51;93.31
59419;BME280;45224;50.904;6.038;2022-10-17T00:43:14;99909.19;;;17.47;93.53
59419;BME280;45224;50.904;6.038;2022-10-17T00:46:17;99916.72;;;17.58;92.95
59419;BME280;45224;50.904;6.038;2022-10-17T00:48:00;99923.94;;;17.48;93.75
59419;BME280;45224;50.904;6.038;2022-10-17T00:49:35;99915.25;;;17.48;93.66
59419;BME280;45224;50.904;6.038;2022-10-17T00:51:06;99916.94;;;17.50;93.22
59419;BME280;45224;50.904;6.038;2022-10-17T00:52:36;99915.19;;;17.51;93.16
59419;BME280;45224;50.904;6.038;2022-10-17T00:54:08;99924.00;;;17.47;93.46
59419;BME280;45224;50.904;6.038;2022-10-17T00:55:50;99910.75;;;17.53;93.15
59419;BME280;45224;50.904;6.038;2022-10-17T00:57:24;99927.44;;;17.49;93.40
59419;BME280;45224;50.904;6.038;2022-10-17T00:58:55;99923.91;;;17.50;93.43
59419;BME280;45224;50.904;6.038;2022-10-17T01:00:26;99908.22;;;17.50;92.98
59419;BME280;45224;50.904;6.038;2022-10-17T01:02:02;99918.59;;;17.53;92.80
59419;BME280;45224;50.904;6.038;2022-10-17T01:03:33;99910.84;;;17.50;93.01
59419;BME280;45224;50.904;6.038;2022-10-17T01:05:05;99913.31;;;17.56;92.37
59419;BME280;45224;50.904;6.038;2022-10-17T01:06:38;99911.72;;;17.50;92.92
59419;BME280;45224;50.904;6.038;2022-10-17T01:08:09;99906.25;;;17.58;92.68
59419;BME280;45224;50.904;6.038;2022-10-17T01:09:41;99916.81;;;17.55;92.35
59419;BME280;45224;50.904;6.038;2022-10-17T01:13:09;99908.97;;;17.55;92.08
59419;BME280;45224;50.904;6.038;2022-10-17T01:18:14;99911.50;;;17.58;92.11
59419;BME280;45224;50.904;6.038;2022-10-17T01:21:32;99911.28;;;17.66;91.27
59419;BME280;45224;50.904;6.038;2022-10-17T01:30:57;99915.88;;;17.58;91.69
59419;BME280;45224;50.904;6.038;2022-10-17T01:32:44;99913.31;;;17.56;91.67
59419;BME280;45224;50.904;6.038;2022-10-17T01:34:24;99913.31;;;17.56;91.76
59419;BME280;45224;50.904;6.038;2022-10-17T01:37:31;99907.19;;;17.57;91.30
59419;BME280;45224;50.904;6.038;2022-10-17T01:41:02;99911.56;;;17.55;91.51
59419;BME280;45224;50.904;6.038;2022-10-17T01:42:47;99911.50;;;17.58;91.08
59419;BME280;45224;50.904;6.038;2022-10-17T01:44:26;99908.91;;;17.57;91.17
59419;BME280;45224;50.904;6.038;2022-10-17T01:46:04;99909.88;;;17.54;91.29
59419;BME280;45224;50.904;6.038;2022-10-17T01:47:38;99908.72;;;17.64;90.45
59419;BME280;45224;50.904;6.038;2022-10-17T01:49:12;99904.38;;;17.63;90.25
59419;BME280;45224;50.904;6.038;2022-10-17T01:50:51;99913.22;;;17.59;90.55
59419;BME280;45224;50.904;6.038;2022-10-17T01:52:26;99899.25;;;17.60;90.10
59419;BME280;45224;50.904;6.038;2022-10-17T01:54:06;99902.69;;;17.62;90.02
59419;BME280;45224;50.904;6.038;2022-10-17T01:55:41;99902.69;;;17.62;90.17
59419;BME280;45224;50.904;6.038;2022-10-17T01:57:35;99899.25;;;17.60;90.36
59419;BME280;45224;50.904;6.038;2022-10-17T01:59:14;99901.03;;;17.58;90.18
59419;BME280;45224;50.904;6.038;2022-10-17T02:00:48;99896.69;;;17.59;89.83
59419;BME280;45224;50.904;6.038;2022-10-17T02:02:20;99900.19;;;17.58;89.86
59419;BME280;45224;50.904;6.038;2022-10-17T02:03:50;99902.69;;;17.62;89.70
59419;BME280;45224;50.904;6.038;2022-10-17T02:05:26;99901.88;;;17.60;89.72
59419;BME280;45224;50.904;6.038;2022-10-17T02:07:08;99902.75;;;17.59;89.43
59419;BME280;45224;50.904;6.038;2022-10-17T02:08:41;99898.50;;;17.55;89.71
59419;BME280;45224;50.904;6.038;2022-10-17T02:10:20;99903.66;;;17.58;89.40
59419;BME280;45224;50.904;6.038;2022-10-17T02:13:44;99895.00;;;17.56;89.45
59419;BME280;45224;50.904;6.038;2022-10-17T02:15:27;99897.69;;;17.53;89.59
59419;BME280;45224;50.904;6.038;2022-10-17T02:19:03;99896.09;;;17.49;89.69
59419;BME280;45224;50.904;6.038;2022-10-17T02:20:49;99896.88;;;17.51;88.95
59419;BME280;45224;50.904;6.038;2022-10-17T02:22:37;99890.94;;;17.46;89.24
59419;BME280;45224;50.904;6.038;2022-10-17T02:24:37;99897.84;;;17.47;89.23
59419;BME280;45224;50.904;6.038;2022-10-17T02:26:32;99884.81;;;17.45;88.97
59419;BME280;45224;50.904;6.038;2022-10-17T02:28:18;99893.47;;;17.49;88.69
59419;BME280;45224;50.904;6.038;2022-10-17T02:29:56;99896.25;;;17.43;89.11
59419;BME280;45224;50.904;6.038;2022-10-17T02:31:58;99889.38;;;17.39;89.48
59419;BME280;45224;50.904;6.038;2022-10-17T02:33:51;99882.53;;;17.34;89.18
59419;BME280;45224;50.904;6.038;2022-10-17T02:35:29;99886.06;;;17.32;89.36
59419;BME280;45224;50.904;6.038;2022-10-17T02:37:04;99881.91;;;17.25;89.58
59419;BME280;45224;50.904;6.038;2022-10-17T02:38:37;99885.31;;;17.27;89.31
59419;BME280;45224;50.904;6.038;2022-10-17T02:40:09;99879.34;;;17.23;89.57
59419;BME280;45224;50.904;6.038;2022-10-17T02:41:43;99890.59;;;17.25;89.39
59419;BME280;45224;50.904;6.038;2022-10-17T02:43:15;99887.16;;;17.23;89.46
59419;BME280;45224;50.904;6.038;2022-10-17T02:44:46;99884.56;;;17.23;89.23
59419;BME280;45224;50.904;6.038;2022-10-17T02:46:22;99885.53;;;17.19;89.35
59419;BME280;45224;50.904;6.038;2022-10-17T02:48:01;99891.63;;;17.18;89.71
59419;BME280;45224;50.904;6.038;2022-10-17T02:49:38;99882.09;;;17.17;89.53
59419;BME280;45224;50.904;6.038;2022-10-17T02:53:08;99892.63;;;17.14;89.51
59419;BME280;45224;50.904;6.038;2022-10-17T02:54:51;99896.00;;;17.18;89.58
59419;BME280;45224;50.904;6.038;2022-10-17T02:56:25;99889.94;;;17.17;89.19
59419;BME280;45224;50.904;6.038;2022-10-17T02:58:12;99891.63;;;17.18;89.03
59419;BME280;45224;50.904;6.038;2022-10-17T02:59:46;99888.22;;;17.16;88.85
59419;BME280;45224;50.904;6.038;2022-10-17T03:01:18;99889.84;;;17.20;89.11
59419;BME280;45224;50.904;6.038;2022-10-17T03:02:50;99896.84;;;17.18;89.09
59419;BME280;45224;50.904;6.038;2022-10-17T03:04:21;99896.69;;;17.24;88.84
59419;BME280;45224;50.904;6.038;2022-10-17T03:05:52;99891.63;;;17.18;89.07
59419;BME280;45224;50.904;6.038;2022-10-17T03:07:26;99895.19;;;17.15;89.21
59419;BME280;45224;50.904;6.038;2022-10-17T03:08:56;99892.66;;;17.12;89.10
59419;BME280;45224;50.904;6.038;2022-10-17T03:10:27;99894.16;;;17.21;88.80
59419;BME280;45224;50.904;6.038;2022-10-17T03:11:58;99907.31;;;17.18;89.25
59419;BME280;45224;50.904;6.038;2022-10-17T03:13:29;99903.88;;;17.16;89.12
59419;BME280;45224;50.904;6.038;2022-10-17T03:15:00;99899.66;;;17.12;89.69
59419;BME280;45224;50.904;6.038;2022-10-17T03:16:32;99904.03;;;17.10;89.77
59419;BME280;45224;50.904;6.038;2022-10-17T03:18:02;99897.06;;;17.10;89.36
59419;BME280;45224;50.904;6.038;2022-10-17T03:19:33;99905.84;;;17.08;89.74
59419;BME280;45224;50.904;6.038;2022-10-17T03:21:04;99905.06;;;17.04;90.17
59419;BME280;45224;50.904;6.038;2022-10-17T03:22:34;99905.94;;;17.03;90.41
59419;BME280;45224;50.904;6.038;2022-10-17T03:24:07;99909.47;;;17.02;90.33
59419;BME280;45224;50.904;6.038;2022-10-17T03:25:37;99914.56;;;17.07;90.12
59419;BME280;45224;50.904;6.038;2022-10-17T03:27:09;99914.56;;;17.07;89.93
59419;BME280;45224;50.904;6.038;2022-10-17T03:28:40;99914.41;;;17.13;89.48
59419;BME280;45224;50.904;6.038;2022-10-17T03:30:11;99910.13;;;17.10;89.80
59419;BME280;45224;50.904;6.038;2022-10-17T03:31:42;99911.91;;;17.08;90.14
59419;BME280;45224;50.904;6.038;2022-10-17T03:33:13;99904.09;;;17.07;89.90
59419;BME280;45224;50.904;6.038;2022-10-17T03:34:44;99922.38;;;17.07;90.15
59419;BME280;45224;50.904;6.038;2022-10-17T03:36:16;99918.84;;;17.09;89.95
59419;BME280;45224;50.904;6.038;2022-10-17T03:37:48;99926.59;;;17.14;89.56
59419;BME280;45224;50.904;6.038;2022-10-17T03:39:19;99924.75;;;17.18;89.52
59419;BME280;45224;50.904;6.038;2022-10-17T03:40:54;99919.63;;;17.13;89.65
59419;BME280;45224;50.904;6.038;2022-10-17T03:42:25;99918.84;;;17.09;90.05
59419;BME280;45224;50.904;6.038;2022-10-17T03:43:55;99921.44;;;17.11;90.12
59419;BME280;45224;50.904;6.038;2022-10-17T03:45:27;99914.47;;;17.10;89.87
59419;BME280;45224;50.904;6.038;2022-10-17T03:46:57;99917.00;;;17.13;90.04
59419;BME280;45224;50.904;6.038;2022-10-17T03:48:29;99916.56;;;17.31;89.46
59419;BME280;45224;50.904;6.038;2022-10-17T03:50:00;99923.81;;;17.20;89.71
59419;BME280;45224;50.904;6.038;2022-10-17T03:51:33;99922.97;;;17.18;89.66
59419;BME280;45224;50.904;6.038;2022-10-17T03:53:07;99921.28;;;17.17;89.69
59419;BME280;45224;50.904;6.038;2022-10-17T03:54:38;99918.81;;;17.11;90.55
59419;BME280;45224;50.904;6.038;2022-10-17T03:56:18;99915.97;;;17.20;90.09
59419;BME280;45224;50.904;6.038;2022-10-17T03:57:55;99916.06;;;17.17;89.66
59419;BME280;45224;50.904;6.038;2022-10-17T03:59:27;99911.59;;;17.21;89.57
59419;BME280;45224;50.904;6.038;2022-10-17T04:01:05;99917.75;;;17.18;90.11
59419;BME280;45224;50.904;6.038;2022-10-17T04:02:36;99917.75;;;17.18;90.17
59419;BME280;45224;50.904;6.038;2022-10-17T04:04:07;99908.22;;;17.17;89.94
59419;BME280;45224;50.904;6.038;2022-10-17T04:05:39;99919.56;;;17.16;90.25
59419;BME280;45224;50.904;6.038;2022-10-17T04:07:10;99918.75;;;17.14;90.29
59419;BME280;45224;50.904;6.038;2022-10-17T04:08:44;99922.19;;;17.14;90.20
59419;BME280;45224;50.904;6.038;2022-10-17T04:10:18;99922.25;;;17.13;90.37
59419;BME280;45224;50.904;6.038;2022-10-17T04:11:49;99919.63;;;17.13;90.59
59419;BME280;45224;50.904;6.038;2022-10-17T04:13:20;99923.09;;;17.15;90.44
59419;BME280;45224;50.904;6.038;2022-10-17T04:14:50;99914.22;;;17.21;90.01
59419;BME280;45224;50.904;6.038;2022-10-17T04:16:21;99919.56;;;17.16;90.17
59419;BME280;45224;50.904;6.038;2022-10-17T04:17:59;99918.25;;;17.32;89.53
59419;BME280;45224;50.904;6.038;2022-10-17T04:19:30;99921.06;;;17.26;89.57
59419;BME280;45224;50.904;6.038;2022-10-17T04:21:02;99914.91;;;17.27;89.79
59419;BME280;45224;50.904;6.038;2022-10-17T04:22:34;99934.84;;;17.31;89.30
59419;BME280;45224;50.904;6.038;2022-10-17T04:24:05;99923.66;;;17.26;89.72
59419;BME280;45224;50.904;6.038;2022-10-17T04:26:04;99926.34;;;17.23;89.82
59419;BME280;45224;50.904;6.038;2022-10-17T04:27:36;99914.94;;;17.26;89.35
59419;BME280;45224;50.904;6.038;2022-10-17T04:29:06;99933.13;;;17.30;89.49
59419;BME280;45224;50.904;6.038;2022-10-17T04:30:37;99921.03;;;17.28;89.41
59419;BME280;45224;50.904;6.038;2022-10-17T04:32:08;99921.06;;;17.26;89.96
59419;BME280;45224;50.904;6.038;2022-10-17T04:33:47;99926.09;;;17.32;89.11
59419;BME280;45224;50.904;6.038;2022-10-17T04:35:18;99914.03;;;17.28;89.31
59419;BME280;45224;50.904;6.038;2022-10-17T04:36:53;99919.94;;;17.35;88.59
59419;BME280;45224;50.904;6.038;2022-10-17T04:38:26;99923.19;;;17.45;88.37
59419;BME280;45224;50.904;6.038;2022-10-17T04:39:57;99924.41;;;17.31;89.07
59419;BME280;45224;50.904;6.038;2022-10-17T04:41:27;99932.81;;;17.43;88.63
59419;BME280;45224;50.904;6.038;2022-10-17T04:42:58;99944.97;;;17.44;88.24
59419;BME280;45224;50.904;6.038;2022-10-17T04:44:36;99941.56;;;17.42;88.38
59419;BME280;45224;50.904;6.038;2022-10-17T04:46:10;99932.81;;;17.43;88.39
59419;BME280;45224;50.904;6.038;2022-10-17T04:47:42;99931.19;;;17.39;88.32
59419;BME280;45224;50.904;6.038;2022-10-17T04:49:13;99931.09;;;17.42;88.13
59419;BME280;45224;50.904;6.038;2022-10-17T04:50:57;99937.06;;;17.47;87.77
59419;BME280;45224;50.904;6.038;2022-10-17T04:52:35;99938.00;;;17.44;87.90
59419;BME280;45224;50.904;6.038;2022-10-17T04:54:09;99938.97;;;17.40;88.19
59419;BME280;45224;50.904;6.038;2022-10-17T04:55:41;99953.59;;;17.49;87.75
59419;BME280;45224;50.904;6.038;2022-10-17T04:57:12;99952.75;;;17.47;87.85
59419;BME280;45224;50.904;6.038;2022-10-17T04:58:45;99949.28;;;17.46;87.60
59419;BME280;45224;50.904;6.038;2022-10-17T05:00:16;99951.84;;;17.48;87.58
59419;BME280;45224;50.904;6.038;2022-10-17T05:02:05;99952.59;;;17.53;87.23
59419;BME280;45224;50.904;6.038;2022-10-17T05:03:38;99957.84;;;17.51;86.89
59419;BME280;45224;50.904;6.038;2022-10-17T05:05:09;99963.19;;;17.47;87.30
59419;BME280;45224;50.904;6.038;2022-10-17T05:06:40;99972.69;;;17.51;87.05
59419;BME280;45224;50.904;6.038;2022-10-17T05:08:25;99970.16;;;17.48;87.08
59419;BME280;45224;50.904;6.038;2022-10-17T05:09:56;99970.81;;;17.56;86.50
59419;BME280;45224;50.904;6.038;2022-10-17T05:11:28;99976.84;;;17.58;86.40
59419;BME280;45224;50.904;6.038;2022-10-17T05:12:58;99981.25;;;17.56;86.40
59419;BME280;45224;50.904;6.038;2022-10-17T05:14:33;99979.72;;;17.49;86.69
59419;BME280;45224;50.904;6.038;2022-10-17T05:16:04;99984.84;;;17.52;86.29
59419;BME280;45224;50.904;6.038;2022-10-17T05:17:35;99988.28;;;17.54;86.39
59419;BME280;45224;50.904;6.038;2022-10-17T05:19:05;99987.38;;;17.55;86.28
59419;BME280;45224;50.904;6.038;2022-10-17T05:20:42;99990.94;;;17.52;86.30
59419;BME280;45224;50.904;6.038;2022-10-17T05:22:13;99984.75;;;17.55;86.12
59419;BME280;45224;50.904;6.038;2022-10-17T05:23:45;99998.69;;;17.57;85.91
59419;BME280;45224;50.904;6.038;2022-10-17T05:25:15;99995.28;;;17.52;86.22
59419;BME280;45224;50.904;6.038;2022-10-17T05:26:49;99993.75;;;17.45;86.41
59419;BME280;45224;50.904;6.038;2022-10-17T05:28:19;99988.47;;;17.46;86.36
59419;BME280;45224;50.904;6.038;2022-10-17T05:29:50;99980.69;;;17.45;86.22
59419;BME280;45224;50.904;6.038;2022-10-17T05:31:30;99988.44;;;17.48;86.24
59419;BME280;45224;50.904;6.038;2022-10-17T05:33:02;99990.31;;;17.43;86.52
59419;BME280;45224;50.904;6.038;2022-10-17T05:34:33;99985.97;;;17.42;86.37
59419;BME280;45224;50.904;6.038;2022-10-17T05:36:04;99988.75;;;17.36;86.72
59419;BME280;45224;50.904;6.038;2022-10-17T05:37:36;99987.09;;;17.33;86.95
59419;BME280;45224;50.904;6.038;2022-10-17T05:39:08;99987.97;;;17.32;86.92
59419;BME280;45224;50.904;6.038;2022-10-17T05:40:39;99987.09;;;17.33;86.75
59419;BME280;45224;50.904;6.038;2022-10-17T05:42:09;99991.44;;;17.32;86.89
59419;BME280;45224;50.904;6.038;2022-10-17T05:43:40;99986.19;;;17.32;86.74
59419;BME280;45224;50.904;6.038;2022-10-17T05:45:10;99982.78;;;17.30;86.62
59419;BME280;45224;50.904;6.038;2022-10-17T05:46:41;99983.63;;;17.31;86.76
59419;BME280;45224;50.904;6.038;2022-10-17T05:48:12;99994.00;;;17.34;86.51
59419;BME280;45224;50.904;6.038;2022-10-17T05:49:43;99990.69;;;17.27;86.57
59419;BME280;45224;50.904;6.038;2022-10-17T05:51:13;99987.19;;;17.28;87.03
59419;BME280;45224;50.904;6.038;2022-10-17T05:52:45;99988.88;;;17.29;86.81
59419;BME280;45224;50.904;6.038;2022-10-17T05:54:18;99987.03;;;17.34;86.31
59419;BME280;45224;50.904;6.038;2022-10-17T05:56:00;99981.13;;;17.28;86.65
59419;BME280;45224;50.904;6.038;2022-10-17T05:57:31;99988.72;;;17.37;86.11
59419;BME280;45224;50.904;6.038;2022-10-17T05:59:01;99987.03;;;17.34;86.04
59419;BME280;45224;50.904;6.038;2022-10-17T06:00:44;99991.47;;;17.31;86.18
59419;BME280;45224;50.904;6.038;2022-10-17T06:02:14;99994.22;;;17.26;86.14
59419;BME280;45224;50.904;6.038;2022-10-17T06:03:45;99993.97;;;17.36;85.88
59419;BME280;45224;50.904;6.038;2022-10-17T06:05:15;99993.19;;;17.32;85.63
59419;BME280;45224;50.904;6.038;2022-10-17T06:06:48;99995.91;;;17.27;86.15
59419;BME280;45224;50.904;6.038;2022-10-17T06:08:18;99997.78;;;17.22;86.67
59419;BME280;45224;50.904;6.038;2022-10-17T06:09:49;100001.44;;;17.15;86.86
59419;BME280;45224;50.904;6.038;2022-10-17T06:11:20;99998.63;;;17.23;86.22
59419;BME280;45224;50.904;6.038;2022-10-17T06:12:50;99999.47;;;17.25;86.35
59419;BME280;45224;50.904;6.038;2022-10-17T06:14:20;99999.34;;;17.29;85.60
59419;BME280;45224;50.904;6.038;2022-10-17T06:15:55;100001.91;;;17.31;85.78
59419;BME280;45224;50.904;6.038;2022-10-17T06:17:25;100003.00;;;17.22;85.96
59419;BME280;45224;50.904;6.038;2022-10-17T06:18:57;100003.09;;;17.19;85.96
59419;BME280;45224;50.904;6.038;2022-10-17T06:20:28;100009.91;;;17.26;85.95
59419;BME280;45224;50.904;6.038;2022-10-17T06:21:58;100003.81;;;17.24;85.95
59419;BME280;45224;50.904;6.038;2022-10-17T06:23:31;100009.09;;;17.23;86.10
59419;BME280;45224;50.904;6.038;2022-10-17T06:25:08;100021.31;;;17.22;85.97
59419;BME280;45224;50.904;6.038;2022-10-17T06:26:39;100015.13;;;17.26;85.75
59419;BME280;45224;50.904;6.038;2022-10-17T06:28:11;100016.19;;;17.18;85.97
59419;BME280;45224;50.904;6.038;2022-10-17T06:29:42;100009.94;;;17.25;85.92
59419;BME280;45224;50.904;6.038;2022-10-17T06:31:15;100014.25;;;17.26;85.59
59419;BME280;45224;50.904;6.038;2022-10-17T06:32:45;100023.78;;;17.28;85.61
59419;BME280;45224;50.904;6.038;2022-10-17T06:34:16;100022.00;;;17.29;85.57
59419;BME280;45224;50.904;6.038;2022-10-17T06:35:55;100021.06;;;17.33;85.53
59419;BME280;45224;50.904;6.038;2022-10-17T06:37:31;100027.16;;;17.32;85.30
59419;BME280;45224;50.904;6.038;2022-10-17T06:39:02;100022.78;;;17.32;85.30
59419;BME280;45224;50.904;6.038;2022-10-17T06:40:39;100024.47;;;17.35;85.47
59419;BME280;45224;50.904;6.038;2022-10-17T06:42:10;100028.81;;;17.36;85.42
59419;BME280;45224;50.904;6.038;2022-10-17T06:44:10;100020.16;;;17.32;85.27
59419;BME280;45224;50.904;6.038;2022-10-17T06:46:03;100027.00;;;17.40;85.11
59419;BME280;45224;50.904;6.038;2022-10-17T06:47:39;100027.69;;;17.46;84.67
59419;BME280;45224;50.904;6.038;2022-10-17T06:49:31;100029.28;;;17.52;84.60
59419;BME280;45224;50.904;6.038;2022-10-17T06:51:35;100025.03;;;17.48;84.60
59419;BME280;45224;50.904;6.038;2022-10-17T06:53:08;100017.94;;;17.53;84.10
59419;BME280;45224;50.904;6.038;2022-10-17T06:54:57;100026.50;;;17.58;84.07
59419;BME280;45224;50.904;6.038;2022-10-17T06:56:41;100029.97;;;17.60;83.72
59419;BME280;45224;50.904;6.038;2022-10-17T06:58:37;100024.81;;;17.57;84.09
59419;BME280;45224;50.904;6.038;2022-10-17T07:00:14;100024.75;;;17.60;84.12
59419;BME280;45224;50.904;6.038;2022-10-17T07:01:52;100022.16;;;17.59;84.12
59419;BME280;45224;50.904;6.038;2022-10-17T07:03:22;100028.03;;;17.68;83.65
59419;BME280;45224;50.904;6.038;2022-10-17T07:04:53;100024.50;;;17.69;83.56
59419;BME280;45224;50.904;6.038;2022-10-17T07:06:25;100034.94;;;17.69;83.64
59419;BME280;45224;50.904;6.038;2022-10-17T07:07:58;100028.88;;;17.69;83.56
59419;BME280;45224;50.904;6.038;2022-10-17T07:09:29;100032.47;;;17.63;83.56
59419;BME280;45224;50.904;6.038;2022-10-17T07:11:09;100041.91;;;17.70;83.15
59419;BME280;45224;50.904;6.038;2022-10-17T07:12:40;100039.31;;;17.69;82.88
59419;BME280;45224;50.904;6.038;2022-10-17T07:14:10;100045.41;;;17.69;82.46
59419;BME280;45224;50.904;6.038;2022-10-17T07:15:41;100040.09;;;17.73;82.96
59419;BME280;45224;50.904;6.038;2022-10-17T07:17:12;100052.22;;;17.77;82.53
59419;BME280;45224;50.904;6.038;2022-10-17T07:18:43;100053.75;;;17.84;82.08
59419;BME280;45224;50.904;6.038;2022-10-17T07:20:14;100059.03;;;17.82;82.20
59419;BME280;45224;50.904;6.038;2022-10-17T07:21:45;100063.53;;;17.77;81.97
59419;BME280;45224;50.904;6.038;2022-10-17T07:23:16;100067.75;;;17.83;82.24
59419;BME280;45224;50.904;6.038;2022-10-17T07:24:47;100065.09;;;17.84;81.83
59419;BME280;45224;50.904;6.038;2022-10-17T07:26:23;100058.03;;;17.90;81.88
59419;BME280;45224;50.904;6.038;2022-10-17T07:27:54;100074.50;;;17.93;81.68
59419;BME280;45224;50.904;6.038;2022-10-17T07:29:25;100068.34;;;17.96;81.84
59419;BME280;45224;50.904;6.038;2022-10-17T07:31:12;100071.00;;;17.94;81.64
59419;BME280;45224;50.904;6.038;2022-10-17T07:32:44;100076.78;;;18.05;81.08
59419;BME280;45224;50.904;6.038;2022-10-17T07:34:15;100084.66;;;18.05;81.26
59419;BME280;45224;50.904;6.038;2022-10-17T07:35:46;100088.97;;;18.06;80.98
59419;BME280;45224;50.904;6.038;2022-10-17T07:37:16;100086.09;;;18.16;80.91
59419;BME280;45224;50.904;6.038;2022-10-17T07:38:53;100079.00;;;18.21;80.37
59419;BME280;45224;50.904;6.038;2022-10-17T07:40:24;100082.41;;;18.23;80.33
59419;BME280;45224;50.904;6.038;2022-10-17T07:41:56;100095.38;;;18.28;80.43
59419;BME280;45224;50.904;6.038;2022-10-17T07:43:28;100091.84;;;18.30;80.36
59419;BME280;45224;50.904;6.038;2022-10-17T07:44:59;100082.09;;;18.35;80.08
59419;BME280;45224;50.904;6.038;2022-10-17T07:46:31;100077.63;;;18.39;79.64
59419;BME280;45224;50.904;6.038;2022-10-17T07:48:03;100077.53;;;18.42;79.43
59419;BME280;45224;50.904;6.038;2022-10-17T07:49:34;100084.38;;;18.48;79.36
59419;BME280;45224;50.904;6.038;2022-10-17T07:51:07;100086.91;;;18.51;79.40
59419;BME280;45224;50.904;6.038;2022-10-17T07:52:38;100094.69;;;18.54;79.33
59419;BME280;45224;50.904;6.038;2022-10-17T07:54:09;100097.03;;;18.63;79.26
59419;BME280;45224;50.904;6.038;2022-10-17T07:55:40;100103.09;;;18.65;78.82
59419;BME280;45224;50.904;6.038;2022-10-17T07:57:11;100102.91;;;18.71;78.75
59419;BME280;45224;50.904;6.038;2022-10-17T07:58:41;100110.75;;;18.71;78.37
59419;BME280;45224;50.904;6.038;2022-10-17T08:00:12;100111.38;;;18.79;78.24
59419;BME280;45224;50.904;6.038;2022-10-17T08:01:45;100116.31;;;18.92;78.37
59419;BME280;45224;50.904;6.038;2022-10-17T08:03:15;100112.50;;;19.02;77.85
59419;BME280;45224;50.904;6.038;2022-10-17T08:04:46;100102.94;;;19.01;77.87
59419;BME280;45224;50.904;6.038;2022-10-17T08:06:17;100108.81;;;19.09;77.39
59419;BME280;45224;50.904;6.038;2022-10-17T08:07:47;100114.09;;;19.08;76.73
59419;BME280;45224;50.904;6.038;2022-10-17T08:09:18;100121.13;;;19.07;75.85
59419;BME280;45224;50.904;6.038;2022-10-17T08:10:49;100120.00;;;19.14;76.18
59419;BME280;45224;50.904;6.038;2022-10-17T08:12:19;100115.72;;;19.12;75.66
59419;BME280;45224;50.904;6.038;2022-10-17T08:13:50;100119.34;;;19.08;75.01
59419;BME280;45224;50.904;6.038;2022-10-17T08:15:21;100130.75;;;19.05;74.96
59419;BME280;45224;50.904;6.038;2022-10-17T08:16:53;100129.91;;;19.05;75.25
59419;BME280;45224;50.904;6.038;2022-10-17T08:18:24;100135.75;;;19.14;75.15
59419;BME280;45224;50.904;6.038;2022-10-17T08:19:54;100137.81;;;19.03;75.11
59419;BME280;45224;50.904;6.038;2022-10-17T08:21:24;100146.31;;;19.11;75.34
59419;BME280;45224;50.904;6.038;2022-10-17T08:22:55;100154.97;;;19.13;75.18
59419;BME280;45224;50.904;6.038;2022-10-17T08:24:25;100159.59;;;19.05;75.44
59419;BME280;45224;50.904;6.038;2022-10-17T08:26:00;100161.28;;;19.08;75.02
59419;BME280;45224;50.904;6.038;2022-10-17T08:27:34;100160.16;;;18.85;75.81
59419;BME280;45224;50.904;6.038;2022-10-17T08:29:05;100157.44;;;18.90;75.41
59419;BME280;45224;50.904;6.038;2022-10-17T08:30:35;100163.25;;;19.00;75.50
59419;BME280;45224;50.904;6.038;2022-10-17T08:32:06;100160.78;;;18.95;75.71
59419;BME280;45224;50.904;6.038;2022-10-17T08:33:39;100156.38;;;18.95;75.50
59419;BME280;45224;50.904;6.038;2022-10-17T08:35:09;100165.91;;;18.98;75.49
59419;BME280;45224;50.904;6.038;2022-10-17T08:36:40;100161.78;;;18.89;75.42
59419;BME280;45224;50.904;6.038;2022-10-17T08:38:11;100160.50;;;19.04;75.12
59419;BME280;45224;50.904;6.038;2022-10-17T08:39:41;100161.84;;;19.18;75.12
59419;BME280;45224;50.904;6.038;2022-10-17T08:44:48;100153.88;;;19.22;74.76